Armstrong, Iowa
Current Conditions -  °F | °C
As of 5:52 PM on Wednesday 22 Oct 2014 (Local Time) from KEST Reporting Station
Clear Clear  
Wind Chill: 61°   Ceiling: Unl
Heat Index: 61°   Visibility: 10mi
Dew Point: 46°   Wind: 25mph
Humidity: 58%   Direction: 150°SSE
Pressure: 30"   Gusts: 29mph
Location:  43.4°N, 94.48°W
Report Text: KEST 222252Z AUTO 15022G25KT 10SM CLR 16/08 A3000 RMK AO2 PK WND 16031/2226 SLP161 T01610078
Loading
Personal Weather Stations






























Interactive Weather Map
Tropical Storm Tracking
New forecast layout! Learn more

10-Day Weather Forecast

Advertisements
Track Severe Weather on mobile